Terminal Aerodrome Forecast
Issued by NWS Billings, MT

Home | Current Version | Previous Version | Graphics & Text | Print | Product List | Glossary On
Versions: 1 2 3 4 5 6 7 8 9 10 11 12 13
000
FTUS45 KBYZ 231126
TAFMLS
TAF
KMLS 231126Z 2312/2412 36008KT P6SM VCSH SCT025 OVC050
     FM231400 32012KT 6SM -RA BKN025 OVC050
     FM232200 32011KT P6SM VCSH SCT250=

USA.gov is the U.S. government's official web portal to all federal, state and local government web resources and services.